Time;durP1;ratioP1;P1;durP2;ratioP2;P2;SDS_P1;SDS_P2;PMS_P1;PMS_P2;Temp;Humidity;BMP_temperature;BMP_pressure;BME280_temperature;BME280_humidity;BME280_pressure;Samples;Min_cycle;Max_cycle;Signal;HPM_P1;HPM_P2
2023/12/17 00:01:11;;;;;;;16.88;9.60;;;0.00;99.90;;;;;;4899893;29;20127;-69
2023/12/17 00:03:38;;;;;;;15.65;9.52;;;-0.10;99.90;;;;;;4915931;29;20044;-68
2023/12/17 00:06:10;;;;;;;15.63;9.55;;;-0.20;99.90;;;;;;4916100;29;20059;-69
2023/12/17 00:08:43;;;;;;;13.07;8.48;;;-0.30;99.90;;;;;;4914401;29;20055;-69
2023/12/17 00:11:15;;;;;;;13.43;9.32;;;-0.30;99.90;;;;;;4913286;29;20040;-69
2023/12/17 00:13:47;;;;;;;14.15;8.95;;;-0.30;99.90;;;;;;4911161;29;20052;-69
2023/12/17 00:16:19;;;;;;;11.60;8.30;;;-0.30;99.90;;;;;;4927769;29;20073;-69
2023/12/17 00:18:45;;;;;;;14.18;9.43;;;-0.30;99.90;;;;;;4915610;29;20044;-69
2023/12/17 00:21:18;;;;;;;34.65;17.63;;;-0.30;99.90;;;;;;4915933;29;20040;-68
2023/12/17 00:23:49;;;;;;;24.25;13.93;;;-0.30;99.90;;;;;;4915135;29;20048;-69
2023/12/17 00:26:16;;;;;;;30.35;14.75;;;-0.30;99.90;;;;;;4922113;29;20048;-70
2023/12/17 00:28:48;;;;;;;21.83;13.50;;;-0.30;99.90;;;;;;4915644;29;20430;-69
2023/12/17 00:31:20;;;;;;;18.67;10.63;;;-0.30;99.90;;;;;;4915636;29;20417;-69
2023/12/17 00:33:47;;;;;;;15.85;9.05;;;-0.30;99.90;;;;;;4915396;29;20798;-69
2023/12/17 00:36:19;;;;;;;16.55;10.10;;;-0.30;99.90;;;;;;4915145;29;20521;-69
2023/12/17 00:38:51;;;;;;;15.45;9.48;;;-0.30;99.90;;;;;;4902726;29;20044;-69
2023/12/17 00:41:22;;;;;;;17.10;10.82;;;-0.30;99.90;;;;;;4914337;29;20040;-69
2023/12/17 00:43:54;;;;;;;15.80;10.43;;;-0.30;99.90;;;;;;4904669;29;20051;-69
2023/12/17 00:46:26;;;;;;;15.00;9.20;;;-0.30;99.90;;;;;;4908891;29;20046;-68
2023/12/17 00:48:58;;;;;;;14.70;9.65;;;-0.30;99.90;;;;;;4903357;29;20062;-68
2023/12/17 00:51:30;;;;;;;13.93;8.70;;;-0.40;99.90;;;;;;4913556;29;20150;-68
2023/12/17 00:54:01;;;;;;;13.02;8.50;;;-0.40;99.90;;;;;;4914704;29;20056;-70
2023/12/17 00:56:34;;;;;;;14.98;11.15;;;-0.40;99.90;;;;;;4915160;29;20062;-69
2023/12/17 00:59:05;;;;;;;18.02;12.98;;;-0.40;99.90;;;;;;4914989;29;20413;-68
2023/12/17 01:01:38;;;;;;;16.40;10.57;;;-0.40;99.90;;;;;;4915196;29;20119;-69
2023/12/17 01:04:10;;;;;;;13.65;9.75;;;-0.40;99.90;;;;;;4914844;29;20051;-68
2023/12/17 01:06:42;;;;;;;13.82;8.55;;;-0.40;99.90;;;;;;4912895;29;20066;-69
2023/12/17 01:09:14;;;;;;;13.15;9.15;;;-0.40;99.90;;;;;;4907203;29;20063;-69
2023/12/17 01:11:46;;;;;;;13.88;8.30;;;-0.40;99.90;;;;;;4904703;29;20049;-69
2023/12/17 01:14:17;;;;;;;14.45;8.25;;;-0.40;99.90;;;;;;4914826;29;20052;-70
2023/12/17 01:16:50;;;;;;;15.45;8.85;;;-0.40;99.90;;;;;;4914820;29;20048;-69
2023/12/17 01:19:22;;;;;;;14.45;9.50;;;-0.40;99.90;;;;;;4914715;29;20059;-69
2023/12/17 01:21:54;;;;;;;13.63;8.48;;;-0.40;99.90;;;;;;4914858;29;20072;-68
2023/12/17 01:24:26;;;;;;;14.05;8.52;;;-0.40;99.90;;;;;;4899856;29;20050;-68
2023/12/17 01:26:59;;;;;;;12.52;7.43;;;-0.40;99.90;;;;;;4914929;29;20426;-69
2023/12/17 01:29:31;;;;;;;12.57;8.45;;;-0.40;99.90;;;;;;4913336;29;20142;-69
2023/12/17 01:32:03;;;;;;;14.48;8.55;;;-0.40;99.90;;;;;;4912105;29;20047;-69
2023/12/17 01:34:38;;;;;;;13.32;8.52;;;-0.40;99.90;;;;;;4911863;29;20051;-68
2023/12/17 01:37:09;;;;;;;16.08;9.30;;;-0.40;99.90;;;;;;4898198;29;20109;-69
2023/12/17 01:39:41;;;;;;;12.35;7.70;;;-0.40;99.90;;;;;;4903085;29;20422;-69
2023/12/17 01:42:13;;;;;;;12.73;7.95;;;-0.50;99.90;;;;;;4914680;29;20390;-69
2023/12/17 01:44:45;;;;;;;14.60;9.30;;;-0.50;99.90;;;;;;4913129;29;20058;-69
2023/12/17 01:47:17;;;;;;;14.43;9.23;;;-0.40;99.90;;;;;;4912654;29;20062;-69
2023/12/17 01:49:49;;;;;;;12.82;8.55;;;-0.40;99.90;;;;;;4898328;29;20509;-68
2023/12/17 01:52:21;;;;;;;11.00;8.50;;;-0.40;99.90;;;;;;4914501;29;20052;-69
2023/12/17 01:54:53;;;;;;;14.15;9.05;;;-0.40;99.90;;;;;;4914426;29;20049;-69
2023/12/17 01:57:24;;;;;;;13.10;8.20;;;-0.40;99.90;;;;;;4913045;29;20148;-69
2023/12/17 01:59:57;;;;;;;17.45;10.63;;;-0.40;99.90;;;;;;4912709;29;20052;-69
2023/12/17 02:02:31;;;;;;;17.17;10.07;;;-0.30;99.90;;;;;;4914050;29;20686;-69
2023/12/17 02:04:58;;;;;;;16.08;9.98;;;-0.30;99.90;;;;;;4913803;29;20043;-68
2023/12/17 02:07:30;;;;;;;14.90;8.77;;;-0.30;99.90;;;;;;4910881;29;20044;-68
2023/12/17 02:10:02;;;;;;;15.75;9.32;;;-0.30;99.90;;;;;;4913784;29;20048;-69
2023/12/17 02:12:34;;;;;;;15.90;9.45;;;-0.40;99.90;;;;;;4913581;29;20044;-68
2023/12/17 02:15:07;;;;;;;12.02;8.10;;;-0.40;99.90;;;;;;4913340;29;20162;-68
2023/12/17 02:17:38;;;;;;;12.57;8.40;;;-0.50;99.90;;;;;;4912379;29;20048;-68
2023/12/17 02:20:11;;;;;;;12.45;8.50;;;-0.50;99.90;;;;;;4913809;29;20040;-69
2023/12/17 02:22:38;;;;;;;12.07;8.13;;;-0.60;99.90;;;;;;4913882;29;20170;-69
2023/12/17 02:25:10;;;;;;;13.98;8.55;;;-0.60;99.90;;;;;;4912327;29;20040;-69
2023/12/17 02:27:43;;;;;;;12.57;8.52;;;-0.70;99.90;;;;;;4913870;29;20048;-69
2023/12/17 02:30:15;;;;;;;13.02;8.77;;;-0.70;99.90;;;;;;4913182;29;20048;-69
2023/12/17 02:32:48;;;;;;;12.63;8.32;;;-0.70;99.90;;;;;;4913752;29;20062;-69
2023/12/17 02:35:21;;;;;;;16.92;8.32;;;-0.70;99.90;;;;;;4909512;29;20397;-69
2023/12/17 02:37:53;;;;;;;14.25;8.82;;;-0.70;99.90;;;;;;4913809;29;20040;-69
2023/12/17 02:40:20;;;;;;;15.15;8.68;;;-0.70;99.90;;;;;;4912319;29;20129;-69
2023/12/17 02:42:52;;;;;;;14.02;8.77;;;-0.80;99.90;;;;;;4913707;29;20135;-69
2023/12/17 02:45:24;;;;;;;11.85;8.02;;;-0.80;99.90;;;;;;4909825;29;20062;-69
2023/12/17 02:47:56;;;;;;;13.68;9.25;;;-0.80;99.90;;;;;;4914759;29;20044;-69
2023/12/17 02:50:23;;;;;;;13.23;8.27;;;-0.80;99.90;;;;;;4903726;29;20047;-69
2023/12/17 02:52:55;;;;;;;13.60;8.48;;;-0.80;99.90;;;;;;4914373;29;20040;-69
2023/12/17 02:55:27;;;;;;;12.57;8.10;;;-0.80;99.90;;;;;;4916636;29;20059;-69
2023/12/17 02:57:54;;;;;;;13.52;7.90;;;-0.80;99.90;;;;;;4915254;29;20435;-68
2023/12/17 03:00:25;;;;;;;15.20;8.68;;;-0.80;99.90;;;;;;4916510;29;20043;-69
2023/12/17 03:02:57;;;;;;;14.60;9.32;;;-0.80;99.90;;;;;;4914516;29;20059;-69
2023/12/17 03:05:24;;;;;;;11.60;8.20;;;-0.80;99.90;;;;;;4916465;29;20131;-69
2023/12/17 03:07:51;;;;;;;13.05;8.65;;;-0.80;99.90;;;;;;4912965;29;20044;-69
2023/12/17 03:10:18;;;;;;;12.00;7.70;;;-0.70;99.90;;;;;;4930275;29;20044;-69
2023/12/17 03:12:50;;;;;;;14.23;9.45;;;-0.70;99.90;;;;;;4916557;29;20044;-69
2023/12/17 03:15:22;;;;;;;13.93;8.52;;;-0.70;99.90;;;;;;4916160;29;20055;-69
2023/12/17 03:17:54;;;;;;;18.42;8.80;;;-0.70;99.90;;;;;;4914176;29;20655;-69
2023/12/17 03:20:26;;;;;;;13.88;8.60;;;-0.70;99.90;;;;;;4906920;29;20044;-69
2023/12/17 03:22:58;;;;;;;15.52;9.15;;;-0.70;99.90;;;;;;4915105;29;20040;-69
2023/12/17 03:25:30;;;;;;;12.77;8.00;;;-0.70;99.90;;;;;;4914941;29;20091;-68
2023/12/17 03:28:01;;;;;;;13.90;8.35;;;-0.80;99.90;;;;;;4916335;29;20096;-68
2023/12/17 03:30:34;;;;;;;12.85;8.35;;;-0.80;99.90;;;;;;4915016;29;20052;-70
2023/12/17 03:33:06;;;;;;;14.18;8.15;;;-0.80;99.90;;;;;;4914270;29;20056;-69
2023/12/17 03:35:38;;;;;;;15.00;8.15;;;-0.80;99.90;;;;;;4915902;29;20048;-69
2023/12/17 03:38:10;;;;;;;12.23;7.78;;;-0.80;99.90;;;;;;4913262;29;20517;-69
2023/12/17 03:40:42;;;;;;;12.73;7.63;;;-0.80;99.90;;;;;;4913300;29;20505;-69
2023/12/17 03:43:14;;;;;;;15.85;8.98;;;-0.80;99.90;;;;;;4916102;29;20040;-69
2023/12/17 03:45:46;;;;;;;15.60;8.85;;;-0.90;99.90;;;;;;4901458;29;20428;-69
2023/12/17 03:48:18;;;;;;;14.32;9.80;;;-0.80;99.90;;;;;;4945738;29;20446;-69
2023/12/17 03:50:50;;;;;;;16.40;9.80;;;-0.80;99.90;;;;;;4913215;29;20063;-69
2023/12/17 03:53:22;;;;;;;16.60;9.02;;;-0.80;99.90;;;;;;4907760;29;20048;-69
2023/12/17 03:55:49;;;;;;;14.07;8.73;;;-0.80;99.90;;;;;;4915654;29;20048;-69
2023/12/17 03:58:21;;;;;;;14.13;8.30;;;-0.80;99.90;;;;;;4914699;29;20048;-69
2023/12/17 04:00:54;;;;;;;12.38;8.10;;;-0.70;99.90;;;;;;4899331;29;20044;-69
2023/12/17 04:03:25;;;;;;;16.15;9.13;;;-0.70;99.90;;;;;;4915474;29;20047;-68
2023/12/17 04:05:59;;;;;;;14.45;8.95;;;-0.70;99.90;;;;;;4901139;29;20064;-69
2023/12/17 04:08:27;;;;;;;12.55;8.50;;;-0.70;99.90;;;;;;4913397;29;20063;-69
2023/12/17 04:10:58;;;;;;;14.32;8.60;;;-0.70;99.90;;;;;;4914283;29;20059;-68
2023/12/17 04:13:30;;;;;;;13.82;8.57;;;-0.70;99.90;;;;;;4914250;29;20044;-69
2023/12/17 04:16:02;;;;;;;13.60;8.50;;;-0.70;99.90;;;;;;4910743;29;20570;-69
2023/12/17 04:18:29;;;;;;;11.95;7.93;;;-0.70;99.90;;;;;;4915387;29;20052;-69
2023/12/17 04:21:01;;;;;;;13.77;8.27;;;-0.70;99.90;;;;;;4906321;29;20044;-69
2023/12/17 04:23:33;;;;;;;14.18;8.32;;;-0.80;99.90;;;;;;4900344;29;20155;-69
2023/12/17 04:26:00;;;;;;;19.08;9.43;;;-0.70;99.90;;;;;;4915583;29;20495;-69
2023/12/17 04:28:32;;;;;;;14.10;8.65;;;-0.80;99.90;;;;;;4907189;29;20052;-69
2023/12/17 04:31:04;;;;;;;16.17;9.70;;;-0.80;99.90;;;;;;4900603;29;20048;-69
2023/12/17 04:33:36;;;;;;;13.50;8.70;;;-0.90;99.90;;;;;;4901816;29;20045;-69
2023/12/17 04:36:09;;;;;;;18.17;9.82;;;-0.90;99.90;;;;;;4915274;29;20048;-69
2023/12/17 04:38:41;;;;;;;15.07;9.40;;;-0.90;99.90;;;;;;4915093;29;20067;-69
2023/12/17 04:41:14;;;;;;;15.07;9.63;;;-1.00;99.90;;;;;;4922388;29;20044;-69
2023/12/17 04:43:45;;;;;;;13.88;8.85;;;-1.00;99.90;;;;;;4907097;29;20044;-68
2023/12/17 04:46:18;;;;;;;13.55;9.27;;;-1.00;99.90;;;;;;4912992;29;20048;-69
2023/12/17 04:48:50;;;;;;;15.35;9.75;;;-1.00;99.90;;;;;;4915328;29;20075;-69
2023/12/17 04:51:23;;;;;;;13.13;8.18;;;-1.00;99.90;;;;;;4914143;29;20047;-69
2023/12/17 04:53:55;;;;;;;14.95;9.60;;;-1.00;99.90;;;;;;4912509;29;20131;-69
2023/12/17 04:56:27;;;;;;;16.95;9.50;;;-1.10;99.90;;;;;;4915277;29;20052;-68
2023/12/17 04:58:54;;;;;;;15.18;7.93;;;-1.10;99.90;;;;;;4913881;29;20142;-69
2023/12/17 05:01:26;;;;;;;12.93;7.88;;;-1.10;99.90;;;;;;4915091;29;20044;-68
2023/12/17 05:03:57;;;;;;;13.10;8.05;;;-1.10;99.90;;;;;;4906029;29;20418;-69
2023/12/17 05:06:29;;;;;;;14.38;8.45;;;-1.20;99.90;;;;;;4912814;29;20062;-69
2023/12/17 05:09:01;;;;;;;11.70;7.30;;;-1.10;99.90;;;;;;4913515;29;20044;-69
2023/12/17 05:11:33;;;;;;;12.45;7.57;;;-1.10;99.90;;;;;;4913751;29;20056;-69
2023/12/17 05:14:05;;;;;;;12.98;7.97;;;-1.10;99.90;;;;;;4912874;29;20103;-68
2023/12/17 05:16:38;;;;;;;16.17;9.07;;;-1.10;99.90;;;;;;4912964;29;20056;-69
2023/12/17 05:19:10;;;;;;;12.63;8.63;;;-1.10;99.90;;;;;;4911279;29;20458;-69
2023/12/17 05:21:42;;;;;;;14.85;8.80;;;-1.10;99.90;;;;;;4914885;29;20048;-69
2023/12/17 05:24:14;;;;;;;22.00;14.73;;;-1.00;99.90;;;;;;4914586;29;20050;-70
2023/12/17 05:26:41;;;;;;;20.15;14.50;;;-1.00;99.90;;;;;;4911489;29;20043;-69
2023/12/17 05:29:13;;;;;;;18.42;12.05;;;-1.10;99.90;;;;;;4914731;29;20131;-69
2023/12/17 05:31:45;;;;;;;15.68;8.98;;;-1.00;99.90;;;;;;4903115;29;20502;-68
2023/12/17 05:34:12;;;;;;;14.07;9.82;;;-1.10;99.90;;;;;;4914345;29;20545;-69
2023/12/17 05:36:44;;;;;;;14.85;9.52;;;-1.10;99.90;;;;;;4913231;29;20139;-69
2023/12/17 05:39:11;;;;;;;12.18;8.40;;;-1.10;99.90;;;;;;4920099;29;20422;-69
2023/12/17 05:41:43;;;;;;;13.25;9.15;;;-1.20;99.90;;;;;;4914661;29;20048;-69
2023/12/17 05:44:15;;;;;;;13.50;9.35;;;-1.10;99.90;;;;;;4912080;29;20048;-69
2023/12/17 05:46:42;;;;;;;12.73;8.43;;;-1.10;99.90;;;;;;4927776;29;20048;-69
2023/12/17 05:49:14;;;;;;;14.65;9.07;;;-1.10;99.90;;;;;;4895124;29;20429;-68
2023/12/17 05:51:44;;;;;;;13.45;8.27;;;-1.20;99.90;;;;;;4914646;29;20112;-69
2023/12/17 05:54:16;;;;;;;12.20;8.55;;;-1.20;99.90;;;;;;4914362;29;20040;-69
2023/12/17 05:56:48;;;;;;;13.23;8.20;;;-1.20;99.90;;;;;;4913372;29;20068;-69
2023/12/17 05:59:20;;;;;;;12.80;7.65;;;-1.20;99.90;;;;;;4920490;29;20421;-69
2023/12/17 06:01:52;;;;;;;12.55;8.48;;;-1.20;99.90;;;;;;4913743;29;20076;-69
2023/12/17 06:04:24;;;;;;;13.23;7.55;;;-1.20;99.90;;;;;;4913362;29;20414;-68
2023/12/17 06:06:51;;;;;;;13.98;8.63;;;-1.30;99.90;;;;;;4912206;29;20036;-68
2023/12/17 06:09:18;;;;;;;10.43;7.25;;;-1.20;99.90;;;;;;4914309;29;20127;-69
2023/12/17 06:11:50;;;;;;;11.52;7.75;;;-1.30;99.90;;;;;;4925712;29;20044;-69
2023/12/17 06:14:17;;;;;;;11.90;7.95;;;-1.30;99.90;;;;;;4914219;29;20127;-68
2023/12/17 06:16:45;;;;;;;12.27;7.65;;;-1.30;99.90;;;;;;4914107;29;20071;-69
2023/12/17 06:19:18;;;;;;;9.50;7.03;;;-1.30;99.90;;;;;;4913939;29;20075;-69
2023/12/17 06:21:44;;;;;;;15.27;9.18;;;-1.30;99.90;;;;;;4903483;29;20053;-68
2023/12/17 06:24:16;;;;;;;16.45;10.80;;;-1.30;99.90;;;;;;4917811;29;20063;-69
2023/12/17 06:26:48;;;;;;;13.90;8.80;;;-1.30;99.90;;;;;;4917838;29;20466;-69
2023/12/17 06:29:15;;;;;;;15.05;11.07;;;-1.30;99.90;;;;;;4900941;29;20134;-68
2023/12/17 06:31:42;;;;;;;15.35;10.07;;;-1.30;99.90;;;;;;4917767;29;20130;-70
2023/12/17 06:34:14;;;;;;;14.48;9.77;;;-1.30;99.90;;;;;;4917569;29;20544;-69
2023/12/17 06:36:46;;;;;;;17.35;11.13;;;-1.30;99.90;;;;;;4917605;29;20056;-69
2023/12/17 06:39:18;;;;;;;19.33;12.82;;;-1.30;99.90;;;;;;4912686;29;20056;-69
2023/12/17 06:41:49;;;;;;;15.93;11.45;;;-1.30;99.90;;;;;;4916296;29;20048;-69
2023/12/17 06:44:21;;;;;;;19.83;12.38;;;-1.30;99.90;;;;;;4917363;29;20044;-69
2023/12/17 06:46:53;;;;;;;20.90;13.50;;;-1.30;99.90;;;;;;4901489;29;20079;-69
2023/12/17 06:49:25;;;;;;;17.65;11.60;;;-1.30;99.90;;;;;;4914437;29;20052;-68
2023/12/17 06:51:57;;;;;;;16.42;11.48;;;-1.30;99.90;;;;;;4901305;29;20079;-68
2023/12/17 06:54:29;;;;;;;18.40;11.50;;;-1.30;99.90;;;;;;4901016;29;20150;-68
2023/12/17 06:57:01;;;;;;;15.98;9.77;;;-1.30;99.90;;;;;;4907382;29;20051;-70
2023/12/17 06:59:33;;;;;;;15.68;10.05;;;-1.30;99.90;;;;;;4915395;29;20147;-69
2023/12/17 07:02:05;;;;;;;15.70;9.90;;;-1.30;99.90;;;;;;4917263;29;20513;-68
2023/12/17 07:04:32;;;;;;;14.50;9.82;;;-1.30;99.90;;;;;;4916512;29;20436;-68
2023/12/17 07:07:04;;;;;;;14.32;9.07;;;-1.30;99.90;;;;;;4887000;29;20525;-69
2023/12/17 07:09:35;;;;;;;13.13;8.43;;;-1.40;99.90;;;;;;4911923;29;20040;-69
2023/12/17 07:12:08;;;;;;;13.60;9.23;;;-1.40;99.90;;;;;;4914555;29;20462;-68
2023/12/17 07:14:40;;;;;;;12.55;8.30;;;-1.40;99.90;;;;;;4912106;29;20055;-69
2023/12/17 07:17:07;;;;;;;12.32;8.82;;;-1.40;99.90;;;;;;4916923;29;20719;-69
2023/12/17 07:19:34;;;;;;;12.68;7.90;;;-1.40;99.90;;;;;;4916908;29;20513;-69
2023/12/17 07:22:07;;;;;;;13.32;8.70;;;-1.40;99.90;;;;;;4916935;29;20055;-68
2023/12/17 07:24:38;;;;;;;12.23;8.45;;;-1.50;99.90;;;;;;4906561;29;20036;-69
2023/12/17 07:27:11;;;;;;;11.00;7.72;;;-1.50;99.90;;;;;;4916347;29;20051;-69
2023/12/17 07:29:43;;;;;;;13.90;8.00;;;-1.50;99.90;;;;;;4916871;29;20063;-68
2023/12/17 07:32:10;;;;;;;9.05;6.97;;;-1.50;99.90;;;;;;4898515;29;20040;-68
2023/12/17 07:34:42;;;;;;;10.35;6.82;;;-1.50;99.90;;;;;;4912817;29;20402;-68
2023/12/17 07:37:14;;;;;;;9.82;6.97;;;-1.50;99.90;;;;;;4902560;29;20048;-68
2023/12/17 07:39:46;;;;;;;11.63;7.15;;;-1.50;99.90;;;;;;4913153;29;20045;-68
2023/12/17 07:42:18;;;;;;;9.77;7.05;;;-1.50;99.90;;;;;;4916714;29;20051;-69
2023/12/17 07:44:45;;;;;;;12.07;7.13;;;-1.50;99.90;;;;;;4916356;29;20040;-69
2023/12/17 07:47:16;;;;;;;12.40;6.95;;;-1.50;99.90;;;;;;4915341;29;20448;-68
2023/12/17 07:49:49;;;;;;;12.95;6.95;;;-1.40;99.90;;;;;;4913735;29;20638;-68
2023/12/17 07:52:21;;;;;;;9.60;6.68;;;-1.50;99.90;;;;;;4916487;29;20070;-69
2023/12/17 07:54:53;;;;;;;8.25;5.38;;;-1.40;99.90;;;;;;4897714;29;20147;-69
2023/12/17 07:57:20;;;;;;;8.38;5.05;;;-1.40;99.90;;;;;;4902515;29;20052;-69
2023/12/17 07:59:52;;;;;;;9.10;5.05;;;-1.40;99.90;;;;;;4916352;29;20040;-69
2023/12/17 08:02:24;;;;;;;7.15;4.53;;;-1.40;99.90;;;;;;4929804;29;20420;-68
2023/12/17 08:04:56;;;;;;;7.07;4.68;;;-1.30;99.90;;;;;;4916123;29;20080;-70
2023/12/17 08:07:23;;;;;;;9.77;5.30;;;-1.30;99.90;;;;;;4916123;29;20040;-69
2023/12/17 08:09:54;;;;;;;7.68;4.53;;;-1.30;99.90;;;;;;4914692;29;20497;-68
2023/12/17 08:12:26;;;;;;;6.32;3.90;;;-1.20;99.90;;;;;;4922349;29;20475;-69
2023/12/17 08:14:58;;;;;;;6.55;4.53;;;-1.20;99.90;;;;;;4891444;29;20143;-69
2023/12/17 08:17:30;;;;;;;6.57;3.75;;;-1.20;99.90;;;;;;4890228;29;20053;-70
2023/12/17 08:20:02;;;;;;;6.55;4.40;;;-1.20;99.90;;;;;;4903714;29;20080;-69
2023/12/17 08:22:34;;;;;;;5.97;4.05;;;-1.10;99.90;;;;;;4915870;29;20040;-69
2023/12/17 08:25:01;;;;;;;6.82;4.55;;;-1.10;99.90;;;;;;4923861;29;20143;-69
2023/12/17 08:27:33;;;;;;;6.32;3.70;;;-1.10;99.90;;;;;;4914675;29;20520;-68
2023/12/17 08:30:00;;;;;;;7.07;4.35;;;-1.10;99.90;;;;;;4915669;29;20039;-69
2023/12/17 08:32:33;;;;;;;6.43;4.28;;;-1.00;99.90;;;;;;4915751;29;20047;-69
2023/12/17 08:35:05;;;;;;;5.17;3.20;;;-1.00;99.90;;;;;;4904026;29;20232;-69
2023/12/17 08:37:37;;;;;;;6.47;3.53;;;-1.00;99.90;;;;;;4915673;29;20292;-69
2023/12/17 08:40:04;;;;;;;5.72;3.72;;;-0.90;99.90;;;;;;4915411;29;20044;-69
2023/12/17 08:42:36;;;;;;;22.08;11.73;;;-0.90;99.90;;;;;;4913979;29;20052;-68
2023/12/17 08:45:08;;;;;;;23.02;13.88;;;-0.80;99.90;;;;;;4900781;29;20430;-69
2023/12/17 08:47:40;;;;;;;22.25;11.10;;;-0.70;99.90;;;;;;4912162;29;20096;-69
2023/12/17 08:50:13;;;;;;;23.13;11.25;;;-0.70;99.90;;;;;;4912383;29;20083;-69
2023/12/17 08:52:45;;;;;;;21.98;13.13;;;-0.60;99.90;;;;;;4915269;29;20048;-69
2023/12/17 08:55:19;;;;;;;20.42;11.68;;;-0.60;99.90;;;;;;4913805;29;20044;-69
2023/12/17 08:57:52;;;;;;;17.08;10.20;;;-0.50;99.90;;;;;;4926544;29;20044;-69
2023/12/17 09:00:20;;;;;;;26.80;17.25;;;-0.50;99.90;;;;;;4914982;29;20052;-69
2023/12/17 09:02:52;;;;;;;30.85;19.63;;;-0.50;99.90;;;;;;4915194;29;20040;-68
2023/12/17 09:05:24;;;;;;;26.85;18.80;;;-0.40;99.90;;;;;;4914949;29;20040;-69
2023/12/17 09:07:56;;;;;;;29.40;21.80;;;-0.40;99.90;;;;;;4915048;29;20066;-68
2023/12/17 09:10:28;;;;;;;31.30;21.05;;;-0.30;99.90;;;;;;4914985;29;20048;-69
2023/12/17 09:13:00;;;;;;;26.65;17.73;;;-0.30;99.90;;;;;;4910546;29;20462;-69
2023/12/17 09:15:32;;;;;;;23.90;15.98;;;-0.20;99.90;;;;;;4911787;29;20048;-69
2023/12/17 09:18:04;;;;;;;23.65;15.88;;;-0.20;99.90;;;;;;4914837;29;20513;-68
2023/12/17 09:20:36;;;;;;;17.92;11.55;;;-0.10;99.90;;;;;;4914950;29;20043;-68
2023/12/17 09:23:03;;;;;;;16.98;8.45;;;0.00;99.90;;;;;;4927018;29;20131;-69
2023/12/17 09:25:35;;;;;;;12.30;7.50;;;0.00;99.90;;;;;;4914690;29;20042;-68
2023/12/17 09:28:07;;;;;;;10.63;7.25;;;0.10;99.90;;;;;;4914730;29;20132;-69
2023/12/17 09:30:34;;;;;;;10.20;6.82;;;0.10;99.90;;;;;;4914840;29;20527;-68
2023/12/17 09:33:06;;;;;;;10.40;6.80;;;0.20;99.90;;;;;;4902560;29;20433;-69
2023/12/17 09:35:38;;;;;;;12.45;7.00;;;0.20;99.90;;;;;;4921968;29;20044;-69
2023/12/17 09:38:10;;;;;;;10.55;6.97;;;0.30;99.90;;;;;;4898483;29;20071;-69
2023/12/17 09:40:46;;;;;;;10.13;6.03;;;0.30;99.90;;;;;;4914639;29;20040;-69
2023/12/17 09:43:20;;;;;;;10.52;6.20;;;0.30;99.90;;;;;;4902210;29;20058;-69
2023/12/17 09:45:48;;;;;;;7.63;5.72;;;0.40;99.90;;;;;;4928615;29;20139;-69
2023/12/17 09:48:20;;;;;;;9.73;6.93;;;0.50;99.90;;;;;;4913433;29;20134;-68
2023/12/17 09:50:52;;;;;;;10.70;7.40;;;0.50;99.90;;;;;;4913620;29;20040;-68
2023/12/17 09:53:21;;;;;;;10.60;7.38;;;0.60;99.90;;;;;;4914599;29;20048;-69
2023/12/17 09:55:53;;;;;;;10.13;7.22;;;0.70;99.90;;;;;;4913428;29;20044;-69
2023/12/17 09:58:28;;;;;;;9.27;6.63;;;0.70;99.90;;;;;;4915752;29;20050;-69
2023/12/17 10:01:00;;;;;;;10.18;6.95;;;0.80;99.90;;;;;;4917253;29;20136;-69
2023/12/17 10:03:32;;;;;;;10.60;7.18;;;0.90;99.90;;;;;;4916863;29;20084;-69
2023/12/17 10:06:04;;;;;;;10.85;7.68;;;1.00;99.90;;;;;;4905790;29;20045;-69
2023/12/17 10:08:36;;;;;;;11.85;8.43;;;1.00;99.90;;;;;;4914887;29;20040;-69
2023/12/17 10:11:08;;;;;;;13.18;8.70;;;1.00;99.90;;;;;;4918195;29;20058;-69
2023/12/17 10:13:40;;;;;;;15.73;10.73;;;1.10;99.90;;;;;;4931019;29;20605;-69
2023/12/17 10:16:08;;;;;;;17.23;11.05;;;1.10;99.90;;;;;;4917742;29;20066;-69
2023/12/17 10:18:39;;;;;;;16.52;9.93;;;1.20;99.90;;;;;;4917990;29;20044;-69
2023/12/17 10:21:12;;;;;;;14.85;10.45;;;1.20;99.90;;;;;;4916228;29;20036;-69
2023/12/17 10:23:47;;;;;;;17.17;10.50;;;1.30;99.90;;;;;;4917817;29;20044;-68
2023/12/17 10:26:19;;;;;;;15.70;10.60;;;1.30;99.90;;;;;;4917985;29;20095;-68
2023/12/17 10:28:52;;;;;;;15.70;11.27;;;1.40;99.90;;;;;;4915082;29;20055;-68
2023/12/17 10:31:26;;;;;;;17.23;11.60;;;1.40;99.90;;;;;;4917958;29;20048;-69
2023/12/17 10:34:04;;;;;;;15.48;11.75;;;1.50;99.90;;;;;;4914382;29;20049;-68
2023/12/17 10:36:36;;;;;;;23.95;13.30;;;1.50;99.90;;;;;;4899455;29;20041;-68
2023/12/17 10:39:11;;;;;;;34.00;15.77;;;1.60;99.90;;;;;;4916388;29;20067;-67
2023/12/17 10:41:43;;;;;;;24.88;13.07;;;1.60;99.90;;;;;;4914260;29;20506;-68
2023/12/17 10:44:15;;;;;;;19.23;11.75;;;1.70;99.90;;;;;;4915285;29;20055;-68
2023/12/17 10:46:44;;;;;;;15.68;10.32;;;1.70;99.90;;;;;;4917522;29;20039;-68
2023/12/17 10:49:19;;;;;;;17.45;10.93;;;1.80;99.90;;;;;;4917569;29;20044;-68
2023/12/17 10:51:51;;;;;;;14.77;10.32;;;1.80;99.90;;;;;;4922742;29;20049;-68
2023/12/17 10:54:23;;;;;;;12.82;10.05;;;1.90;99.90;;;;;;4914931;29;20542;-68
2023/12/17 10:56:58;;;;;;;16.38;10.65;;;1.90;99.90;;;;;;4917371;29;20052;-68
2023/12/17 10:59:30;;;;;;;14.23;9.95;;;2.00;99.90;;;;;;4904494;29;20049;-68
2023/12/17 11:02:00;;;;;;;15.55;10.20;;;2.00;99.90;;;;;;4916053;29;20521;-68
2023/12/17 11:04:32;;;;;;;15.85;10.27;;;2.10;99.90;;;;;;4915852;29;20051;-68
2023/12/17 11:07:04;;;;;;;14.63;9.90;;;2.20;99.90;;;;;;4917025;29;20656;-68
2023/12/17 11:09:35;;;;;;;12.88;9.43;;;2.20;99.90;;;;;;4901311;29;20052;-69
2023/12/17 11:12:07;;;;;;;14.18;9.07;;;2.30;99.90;;;;;;4900899;29;20052;-69
2023/12/17 11:14:42;;;;;;;10.25;7.68;;;2.40;99.90;;;;;;4916257;29;20052;-69
2023/12/17 11:17:16;;;;;;;11.98;7.80;;;2.40;99.90;;;;;;4915736;29;20070;-69
2023/12/17 11:19:54;;;;;;;;;;;2.50;99.90;;;;;;4916268;29;20075;-69
2023/12/17 11:22:24;;;;;;;11.48;7.53;;;2.60;99.90;;;;;;4890180;29;19974;-69
2023/12/17 11:24:57;;;;;;;9.40;6.57;;;2.60;99.90;;;;;;4916826;29;20446;-69
2023/12/17 11:27:31;;;;;;;11.40;7.95;;;2.70;99.90;;;;;;4916860;29;20063;-69
2023/12/17 11:30:03;;;;;;;;;;;2.70;99.90;;;;;;4902160;29;20139;-68
2023/12/17 11:32:35;;;;;;;10.88;7.30;;;2.90;99.90;;;;;;4916794;29;19930;-68
2023/12/17 11:35:07;;;;;;;10.90;7.90;;;2.90;99.90;;;;;;4915183;29;20092;-68
2023/12/17 11:37:39;;;;;;;14.13;9.90;;;3.00;99.90;;;;;;4917008;29;20758;-68
2023/12/17 11:40:11;;;;;;;15.80;9.00;;;3.10;99.90;;;;;;4929276;29;20178;-68
2023/12/17 11:42:40;;;;;;;22.27;13.50;;;3.10;99.90;;;;;;4899677;29;20071;-68
2023/12/17 11:45:07;;;;;;;12.60;8.65;;;3.20;99.90;;;;;;4910074;29;20044;-68
2023/12/17 11:47:39;;;;;;;12.88;8.75;;;3.20;99.90;;;;;;4915292;29;20405;-68
2023/12/17 11:50:12;;;;;;;14.95;9.23;;;3.30;99.90;;;;;;4914405;29;20065;-68
2023/12/17 11:52:44;;;;;;;12.98;9.50;;;3.40;99.90;;;;;;4916449;29;20417;-68
2023/12/17 11:55:11;;;;;;;13.00;7.75;;;3.40;99.90;;;;;;4915748;29;20044;-68
2023/12/17 11:57:43;;;;;;;13.05;9.45;;;3.50;99.90;;;;;;4916352;29;20044;-68
2023/12/17 12:00:12;;;;;;;15.73;10.05;;;3.60;99.90;;;;;;4914572;29;20040;-68
2023/12/17 12:02:45;;;;;;;17.80;10.45;;;3.70;99.90;;;;;;4916211;29;20044;-68
2023/12/17 12:05:18;;;;;;;13.90;11.23;;;3.80;99.90;;;;;;4899708;29;20062;-68
2023/12/17 12:07:54;;;;;;;16.67;11.07;;;3.80;99.90;;;;;;4914685;29;20048;-68
2023/12/17 12:10:26;;;;;;;15.85;11.27;;;3.90;99.90;;;;;;4916026;29;20048;-68
2023/12/17 12:13:03;;;;;;;28.27;15.50;;;4.00;99.90;;;;;;4914002;29;20059;-68
2023/12/17 12:15:30;;;;;;;34.03;19.30;;;4.00;99.90;;;;;;4915551;29;20043;-68
2023/12/17 12:18:02;;;;;;;30.90;17.67;;;4.10;99.90;;;;;;4915878;29;20044;-67
2023/12/17 12:20:34;;;;;;;31.88;18.15;;;4.10;99.90;;;;;;4915236;29;20075;-68
2023/12/17 12:23:08;;;;;;;23.70;14.70;;;4.20;99.90;;;;;;4897218;29;20579;-68
2023/12/17 12:25:40;;;;;;;23.85;14.70;;;4.20;99.90;;;;;;4895972;29;20048;-68
2023/12/17 12:28:21;;;;;;;31.65;19.52;;;4.30;99.90;;;;;;4915709;29;20044;-68
2023/12/17 12:30:53;;;;;;;28.25;17.50;;;4.40;99.90;;;;;;4917021;29;20084;-68
2023/12/17 12:33:26;;;;;;;24.65;14.98;;;4.40;99.90;;;;;;4915467;29;20040;-67
2023/12/17 12:36:06;;;;;;;17.80;10.32;;;4.50;99.90;;;;;;4907392;29;20052;-68
2023/12/17 12:38:38;;;;;;;13.82;10.55;;;4.50;99.90;;;;;;4913167;29;20057;-68
2023/12/17 12:41:14;;;;;;;14.77;9.80;;;4.60;99.90;;;;;;4901398;29;20048;-67
2023/12/17 12:43:49;;;;;;;31.90;16.85;;;4.70;99.90;;;;;;4912950;29;20041;-67
2023/12/17 12:46:22;;;;;;;47.97;24.40;;;4.70;99.90;;;;;;4915379;29;20424;-67
2023/12/17 12:48:58;;;;;;;43.22;22.83;;;4.80;99.90;;;;;;4912697;29;20525;-68
2023/12/17 12:51:31;;;;;;;46.97;25.50;;;4.80;99.90;;;;;;4915482;29;20051;-68
2023/12/17 12:54:03;;;;;;;36.70;19.73;;;4.80;99.90;;;;;;4910227;29;20450;-68
2023/12/17 12:56:35;;;;;;;24.55;14.30;;;4.80;99.90;;;;;;4898735;29;20044;-68
2023/12/17 12:59:02;;;;;;;54.22;30.02;;;4.70;99.90;;;;;;4915083;29;20036;-68